Grand Ace10 — 3EPV8 — position and weather

sailwx.info

Track history (hours):
 
Tides and Currents Weather Stations Pressure Air Temp Water Temp Dewpoint Dewpoint Depression Visibility Wind Speed Wind Dir Waves Ship Positions

Grand Ace10

Last reported at 2018-Jun-04 14:04 UTC. Time now 2018-Jun-23 23:36 UTC.
Position N 23°47' E 120°06'.
Warning: this ship's position is 19 days out of date.

Length 183 m; draft 10.5 m.

Type: Tanker. MMSI: 354252000.

Date/timePositionNaut miles runAvg speedWind from/ knotsBaromVisibWave heightAir tempDewpointWater temp
2018-Jun-04 14:04N 23°47' E 120°06'0 0.1
2018-Jun-04 09:43N 23°47' E 120°06'0 0.1
2018-Jun-04 09:19N 23°47' E 120°06'0 0.1
2018-Jun-04 08:55N 23°47' E 120°06'0 0.1
2018-Jun-04 08:22N 23°47' E 120°06'0 0.0
2018-Jun-03 13:25N 23°47' E 120°06'0 0.0
2018-Jun-03 12:55N 23°47' E 120°06'0 0.2
2018-Jun-03 12:28N 23°47' E 120°06'0 0.2
2018-Jun-03 11:49N 23°47' E 120°06'0 0.0
2018-Jun-03 08:49N 23°47' E 120°06'0 0.1
2018-Jun-03 08:28N 23°47' E 120°06'0 0.0
2018-Jun-03 07:58N 23°47' E 120°06'18 0.9
2018-Jun-02 10:52N 23°31' E 119°56'4012.0
2018-Jun-02 07:29N 22°50' E 119°55'913.0
2018-Jun-02 06:46N 22°42' E 119°50'513.3
2018-Jun-02 06:25N 22°38' E 119°47'714.0
2018-Jun-02 05:56N 22°33' E 119°43'  
2018-May-28 14:12N 01°36' E 104°38'413.3
2018-May-28 13:52N 01°32' E 104°36'513.4
2018-May-28 13:30N 01°29' E 104°33'712.8
2018-May-28 12:57N 01°24' E 104°28'612.7
2018-May-28 12:30N 01°21' E 104°23'611.8
2018-May-28 11:59N 01°17' E 104°18'612.4
2018-May-28 11:29N 01°16' E 104°12'612.5
2018-May-28 11:00N 01°15' E 104°06'612.3
2018-May-28 10:29N 01°14' E 103°60'612.5
2018-May-28 10:00N 01°12' E 103°54'611.9
2018-May-28 09:30N 01°10' E 103°49'712.9
2018-May-28 09:00N 01°05' E 103°44'612.6
2018-May-28 08:30N 01°03' E 103°38'712.9
2018-May-28 07:59N 01°06' E 103°33'612.5
2018-May-28 07:30N 01°09' E 103°27'612.8
2018-May-28 07:00N 01°13' E 103°22'612.7
2018-May-28 06:30N 01°17' E 103°17'9 0.2
2018-May-26 06:06N 01°24' E 103°12'914.5
2018-May-26 05:27N 01°18' E 103°19'714.6
2018-May-26 05:00N 01°14' E 103°24'714.3
2018-May-26 04:30N 01°12' E 103°31'713.0
2018-May-26 04:00N 01°11' E 103°38'714.3
2018-May-26 03:30N 01°08' E 103°44'713.6
2018-May-26 03:00N 01°12' E 103°50'713.5
2018-May-26 02:30N 01°14' E 103°57'713.8
2018-May-26 02:00N 01°16' E 104°03'714.0
2018-May-26 01:29N 01°17' E 104°10'713.8
2018-May-26 00:58N 01°18' E 104°17'613.7
2018-May-26 00:30N 01°21' E 104°23'  
Track history (hours):
 
Tides and Currents Weather Stations Pressure Air Temp Water Temp Dewpoint Dewpoint Depression Visibility Wind Speed Wind Dir Waves Ship Positions

Grand Ace10

Last reported at 2018-Jun-04 14:04 UTC. Time now 2018-Jun-23 23:36 UTC.
Position N 23°47' E 120°06'.
Warning: this ship's position is 19 days out of date.

Length 183 m; draft 10.5 m.

Type: Tanker. MMSI: 354252000.

Date/timePositionNaut miles runAvg speedWind from/ knotsBaromVisibWave heightAir tempDewpointWater temp
2018-Jun-04 14:04N 23°47' E 120°06'0 0.1
2018-Jun-04 09:43N 23°47' E 120°06'0 0.1
2018-Jun-04 09:19N 23°47' E 120°06'0 0.1
2018-Jun-04 08:55N 23°47' E 120°06'0 0.1
2018-Jun-04 08:22N 23°47' E 120°06'0 0.0
2018-Jun-03 13:25N 23°47' E 120°06'0 0.0
2018-Jun-03 12:55N 23°47' E 120°06'0 0.2
2018-Jun-03 12:28N 23°47' E 120°06'0 0.2
2018-Jun-03 11:49N 23°47' E 120°06'0 0.0
2018-Jun-03 08:49N 23°47' E 120°06'0 0.1
2018-Jun-03 08:28N 23°47' E 120°06'0 0.0
2018-Jun-03 07:58N 23°47' E 120°06'18 0.9
2018-Jun-02 10:52N 23°31' E 119°56'4012.0
2018-Jun-02 07:29N 22°50' E 119°55'913.0
2018-Jun-02 06:46N 22°42' E 119°50'513.3
2018-Jun-02 06:25N 22°38' E 119°47'714.0
2018-Jun-02 05:56N 22°33' E 119°43'  
2018-May-28 14:12N 01°36' E 104°38'413.3
2018-May-28 13:52N 01°32' E 104°36'513.4
2018-May-28 13:30N 01°29' E 104°33'712.8
2018-May-28 12:57N 01°24' E 104°28'612.7
2018-May-28 12:30N 01°21' E 104°23'611.8
2018-May-28 11:59N 01°17' E 104°18'612.4
2018-May-28 11:29N 01°16' E 104°12'612.5
2018-May-28 11:00N 01°15' E 104°06'612.3
2018-May-28 10:29N 01°14' E 103°60'612.5
2018-May-28 10:00N 01°12' E 103°54'611.9
2018-May-28 09:30N 01°10' E 103°49'712.9
2018-May-28 09:00N 01°05' E 103°44'612.6
2018-May-28 08:30N 01°03' E 103°38'712.9
2018-May-28 07:59N 01°06' E 103°33'612.5
2018-May-28 07:30N 01°09' E 103°27'612.8
2018-May-28 07:00N 01°13' E 103°22'612.7
2018-May-28 06:30N 01°17' E 103°17'9 0.2
2018-May-26 06:06N 01°24' E 103°12'914.5
2018-May-26 05:27N 01°18' E 103°19'714.6
2018-May-26 05:00N 01°14' E 103°24'714.3
2018-May-26 04:30N 01°12' E 103°31'713.0
2018-May-26 04:00N 01°11' E 103°38'714.3
2018-May-26 03:30N 01°08' E 103°44'713.6
2018-May-26 03:00N 01°12' E 103°50'713.5
2018-May-26 02:30N 01°14' E 103°57'713.8
2018-May-26 02:00N 01°16' E 104°03'714.0
2018-May-26 01:29N 01°17' E 104°10'713.8
2018-May-26 00:58N 01°18' E 104°17'613.7
2018-May-26 00:30N 01°21' E 104°23'  

Dump ship's entire track history